sensor_id;sensor_type;location;lat;lon;timestamp;P1;durP1;ratioP1;P2;durP2;ratioP2
13327;SDS011;6733;51.044;3.746;2022-12-11T00:00:46;26.97;;;18.53;;
13327;SDS011;6733;51.044;3.746;2022-12-11T00:03:12;26.63;;;18.17;;
13327;SDS011;6733;51.044;3.746;2022-12-11T00:05:39;26.33;;;16.50;;
13327;SDS011;6733;51.044;3.746;2022-12-11T00:08:06;24.70;;;16.10;;
13327;SDS011;6733;51.044;3.746;2022-12-11T00:10:32;24.53;;;16.80;;
13327;SDS011;6733;51.044;3.746;2022-12-11T00:12:58;23.23;;;16.40;;
13327;SDS011;6733;51.044;3.746;2022-12-11T00:15:25;24.07;;;16.73;;
13327;SDS011;6733;51.044;3.746;2022-12-11T00:17:51;27.73;;;16.70;;
13327;SDS011;6733;51.044;3.746;2022-12-11T00:20:17;26.20;;;17.33;;
13327;SDS011;6733;51.044;3.746;2022-12-11T00:22:43;24.83;;;17.87;;
13327;SDS011;6733;51.044;3.746;2022-12-11T00:25:09;26.87;;;17.50;;
13327;SDS011;6733;51.044;3.746;2022-12-11T00:27:35;28.03;;;19.40;;
13327;SDS011;6733;51.044;3.746;2022-12-11T00:30:02;29.53;;;18.73;;
13327;SDS011;6733;51.044;3.746;2022-12-11T00:32:28;29.80;;;19.03;;
13327;SDS011;6733;51.044;3.746;2022-12-11T00:34:56;28.63;;;19.53;;
13327;SDS011;6733;51.044;3.746;2022-12-11T00:37:22;28.07;;;19.13;;
13327;SDS011;6733;51.044;3.746;2022-12-11T00:39:48;28.13;;;18.77;;
13327;SDS011;6733;51.044;3.746;2022-12-11T00:42:15;33.33;;;19.60;;
13327;SDS011;6733;51.044;3.746;2022-12-11T00:44:41;34.17;;;20.57;;
13327;SDS011;6733;51.044;3.746;2022-12-11T00:47:07;29.97;;;19.93;;
13327;SDS011;6733;51.044;3.746;2022-12-11T00:49:33;32.87;;;20.80;;
13327;SDS011;6733;51.044;3.746;2022-12-11T00:51:59;31.00;;;19.60;;
13327;SDS011;6733;51.044;3.746;2022-12-11T00:54:25;31.53;;;19.80;;
13327;SDS011;6733;51.044;3.746;2022-12-11T00:56:51;32.07;;;19.80;;
13327;SDS011;6733;51.044;3.746;2022-12-11T00:59:20;34.83;;;19.73;;
13327;SDS011;6733;51.044;3.746;2022-12-11T01:01:46;34.67;;;20.43;;
13327;SDS011;6733;51.044;3.746;2022-12-11T01:04:12;31.70;;;19.23;;
13327;SDS011;6733;51.044;3.746;2022-12-11T01:06:38;30.20;;;19.97;;
13327;SDS011;6733;51.044;3.746;2022-12-11T01:09:04;31.50;;;19.67;;
13327;SDS011;6733;51.044;3.746;2022-12-11T01:11:49;29.77;;;19.80;;
13327;SDS011;6733;51.044;3.746;2022-12-11T01:14:16;30.80;;;19.80;;
13327;SDS011;6733;51.044;3.746;2022-12-11T01:16:42;33.60;;;19.27;;
13327;SDS011;6733;51.044;3.746;2022-12-11T01:19:08;28.67;;;17.90;;
13327;SDS011;6733;51.044;3.746;2022-12-11T01:21:34;30.17;;;18.53;;
13327;SDS011;6733;51.044;3.746;2022-12-11T01:24:01;24.73;;;17.03;;
13327;SDS011;6733;51.044;3.746;2022-12-11T01:26:27;28.27;;;19.10;;
13327;SDS011;6733;51.044;3.746;2022-12-11T01:28:54;25.70;;;17.40;;
13327;SDS011;6733;51.044;3.746;2022-12-11T01:31:20;26.83;;;17.90;;
13327;SDS011;6733;51.044;3.746;2022-12-11T01:33:46;25.40;;;17.17;;
13327;SDS011;6733;51.044;3.746;2022-12-11T01:36:14;30.60;;;18.27;;
13327;SDS011;6733;51.044;3.746;2022-12-11T01:38:44;25.60;;;16.93;;
13327;SDS011;6733;51.044;3.746;2022-12-11T01:41:11;29.53;;;17.60;;
13327;SDS011;6733;51.044;3.746;2022-12-11T01:43:56;24.37;;;17.33;;
13327;SDS011;6733;51.044;3.746;2022-12-11T01:46:25;24.53;;;16.93;;
13327;SDS011;6733;51.044;3.746;2022-12-11T01:48:52;24.53;;;17.57;;
13327;SDS011;6733;51.044;3.746;2022-12-11T01:51:18;26.80;;;17.87;;
13327;SDS011;6733;51.044;3.746;2022-12-11T01:53:47;27.03;;;18.53;;
13327;SDS011;6733;51.044;3.746;2022-12-11T01:56:21;30.33;;;19.57;;
13327;SDS011;6733;51.044;3.746;2022-12-11T01:58:49;27.63;;;19.10;;
13327;SDS011;6733;51.044;3.746;2022-12-11T02:01:23;27.40;;;18.90;;
13327;SDS011;6733;51.044;3.746;2022-12-11T02:03:59;25.47;;;17.30;;
13327;SDS011;6733;51.044;3.746;2022-12-11T02:06:30;24.37;;;18.13;;
13327;SDS011;6733;51.044;3.746;2022-12-11T02:09:02;25.67;;;18.93;;
13327;SDS011;6733;51.044;3.746;2022-12-11T02:11:46;25.27;;;18.33;;
13327;SDS011;6733;51.044;3.746;2022-12-11T02:17:55;26.50;;;18.37;;
13327;SDS011;6733;51.044;3.746;2022-12-11T02:25:19;31.30;;;19.37;;
13327;SDS011;6733;51.044;3.746;2022-12-11T02:27:53;30.10;;;20.10;;
13327;SDS011;6733;51.044;3.746;2022-12-11T02:30:49;29.27;;;19.63;;
13327;SDS011;6733;51.044;3.746;2022-12-11T02:33:21;31.50;;;20.90;;
13327;SDS011;6733;51.044;3.746;2022-12-11T02:36:22;36.40;;;21.57;;
13327;SDS011;6733;51.044;3.746;2022-12-11T02:39:18;31.73;;;19.97;;
13327;SDS011;6733;51.044;3.746;2022-12-11T02:42:16;32.77;;;20.50;;
13327;SDS011;6733;51.044;3.746;2022-12-11T02:45:12;35.20;;;21.47;;
13327;SDS011;6733;51.044;3.746;2022-12-11T02:48:08;38.33;;;22.00;;
13327;SDS011;6733;51.044;3.746;2022-12-11T02:51:04;35.80;;;21.63;;
13327;SDS011;6733;51.044;3.746;2022-12-11T02:53:33;33.53;;;21.87;;
13327;SDS011;6733;51.044;3.746;2022-12-11T02:56:12;37.10;;;21.27;;
13327;SDS011;6733;51.044;3.746;2022-12-11T02:58:49;36.87;;;21.50;;
13327;SDS011;6733;51.044;3.746;2022-12-11T03:01:24;32.90;;;21.03;;
13327;SDS011;6733;51.044;3.746;2022-12-11T03:03:52;32.00;;;21.47;;
13327;SDS011;6733;51.044;3.746;2022-12-11T03:06:21;33.37;;;22.03;;
13327;SDS011;6733;51.044;3.746;2022-12-11T03:08:51;34.67;;;21.60;;
13327;SDS011;6733;51.044;3.746;2022-12-11T03:11:17;30.67;;;21.20;;
13327;SDS011;6733;51.044;3.746;2022-12-11T03:13:44;36.20;;;22.93;;
13327;SDS011;6733;51.044;3.746;2022-12-11T03:16:11;36.43;;;20.60;;
13327;SDS011;6733;51.044;3.746;2022-12-11T03:18:49;36.93;;;21.40;;
13327;SDS011;6733;51.044;3.746;2022-12-11T03:21:26;29.93;;;20.03;;
13327;SDS011;6733;51.044;3.746;2022-12-11T03:24:14;31.67;;;20.60;;
13327;SDS011;6733;51.044;3.746;2022-12-11T03:26:57;33.27;;;19.87;;
13327;SDS011;6733;51.044;3.746;2022-12-11T03:29:30;32.87;;;19.57;;
13327;SDS011;6733;51.044;3.746;2022-12-11T03:34:29;29.77;;;19.90;;
13327;SDS011;6733;51.044;3.746;2022-12-11T03:36:59;29.70;;;18.80;;
13327;SDS011;6733;51.044;3.746;2022-12-11T03:39:31;28.33;;;18.83;;
13327;SDS011;6733;51.044;3.746;2022-12-11T03:42:04;30.17;;;18.83;;
13327;SDS011;6733;51.044;3.746;2022-12-11T03:44:32;30.17;;;19.53;;
13327;SDS011;6733;51.044;3.746;2022-12-11T03:47:00;25.20;;;18.20;;
13327;SDS011;6733;51.044;3.746;2022-12-11T03:49:30;26.60;;;17.50;;
13327;SDS011;6733;51.044;3.746;2022-12-11T03:52:01;30.00;;;18.30;;
13327;SDS011;6733;51.044;3.746;2022-12-11T03:54:28;27.80;;;18.57;;
13327;SDS011;6733;51.044;3.746;2022-12-11T03:56:56;29.33;;;19.40;;
13327;SDS011;6733;51.044;3.746;2022-12-11T03:59:25;30.57;;;18.77;;
13327;SDS011;6733;51.044;3.746;2022-12-11T04:01:51;28.17;;;17.03;;
13327;SDS011;6733;51.044;3.746;2022-12-11T04:04:17;24.07;;;16.43;;
13327;SDS011;6733;51.044;3.746;2022-12-11T04:06:43;26.77;;;17.30;;
13327;SDS011;6733;51.044;3.746;2022-12-11T04:09:09;28.10;;;17.17;;
13327;SDS011;6733;51.044;3.746;2022-12-11T04:11:35;24.90;;;17.07;;
13327;SDS011;6733;51.044;3.746;2022-12-11T04:14:05;25.70;;;17.63;;
13327;SDS011;6733;51.044;3.746;2022-12-11T04:16:52;24.80;;;17.20;;
13327;SDS011;6733;51.044;3.746;2022-12-11T04:19:20;26.23;;;17.57;;
13327;SDS011;6733;51.044;3.746;2022-12-11T04:22:05;22.83;;;16.17;;
13327;SDS011;6733;51.044;3.746;2022-12-11T04:24:50;28.67;;;16.90;;
13327;SDS011;6733;51.044;3.746;2022-12-11T04:27:16;24.10;;;16.57;;
13327;SDS011;6733;51.044;3.746;2022-12-11T04:30:04;28.13;;;17.07;;
13327;SDS011;6733;51.044;3.746;2022-12-11T04:32:32;26.70;;;17.23;;
13327;SDS011;6733;51.044;3.746;2022-12-11T04:34:58;27.47;;;18.53;;
13327;SDS011;6733;51.044;3.746;2022-12-11T04:37:25;24.23;;;16.27;;
13327;SDS011;6733;51.044;3.746;2022-12-11T04:39:52;23.57;;;17.43;;
13327;SDS011;6733;51.044;3.746;2022-12-11T04:42:18;26.50;;;16.03;;
13327;SDS011;6733;51.044;3.746;2022-12-11T04:44:44;27.57;;;17.17;;
13327;SDS011;6733;51.044;3.746;2022-12-11T04:47:10;24.63;;;16.67;;
13327;SDS011;6733;51.044;3.746;2022-12-11T04:49:36;24.43;;;17.50;;
13327;SDS011;6733;51.044;3.746;2022-12-11T04:52:03;26.70;;;17.37;;
13327;SDS011;6733;51.044;3.746;2022-12-11T04:54:29;25.47;;;17.40;;
13327;SDS011;6733;51.044;3.746;2022-12-11T04:56:56;27.17;;;17.30;;
13327;SDS011;6733;51.044;3.746;2022-12-11T04:59:22;24.00;;;17.30;;
13327;SDS011;6733;51.044;3.746;2022-12-11T05:01:48;28.37;;;18.53;;
13327;SDS011;6733;51.044;3.746;2022-12-11T05:04:14;24.47;;;17.80;;
13327;SDS011;6733;51.044;3.746;2022-12-11T05:06:40;25.93;;;16.90;;
13327;SDS011;6733;51.044;3.746;2022-12-11T05:09:09;24.70;;;17.77;;
13327;SDS011;6733;51.044;3.746;2022-12-11T05:11:37;26.90;;;18.67;;
13327;SDS011;6733;51.044;3.746;2022-12-11T05:14:03;29.37;;;18.33;;
13327;SDS011;6733;51.044;3.746;2022-12-11T05:16:29;27.27;;;18.63;;
13327;SDS011;6733;51.044;3.746;2022-12-11T05:18:55;27.33;;;19.03;;
13327;SDS011;6733;51.044;3.746;2022-12-11T05:21:21;27.23;;;18.93;;
13327;SDS011;6733;51.044;3.746;2022-12-11T05:23:47;29.90;;;20.03;;
13327;SDS011;6733;51.044;3.746;2022-12-11T05:26:14;25.53;;;18.60;;
13327;SDS011;6733;51.044;3.746;2022-12-11T05:28:43;27.17;;;19.27;;
13327;SDS011;6733;51.044;3.746;2022-12-11T05:31:14;27.87;;;18.37;;
13327;SDS011;6733;51.044;3.746;2022-12-11T05:33:45;28.27;;;19.43;;
13327;SDS011;6733;51.044;3.746;2022-12-11T05:36:13;27.30;;;19.57;;
13327;SDS011;6733;51.044;3.746;2022-12-11T05:38:41;28.80;;;20.50;;
13327;SDS011;6733;51.044;3.746;2022-12-11T05:41:07;31.23;;;21.33;;
13327;SDS011;6733;51.044;3.746;2022-12-11T05:43:36;27.77;;;19.50;;
13327;SDS011;6733;51.044;3.746;2022-12-11T05:46:06;29.93;;;21.10;;
13327;SDS011;6733;51.044;3.746;2022-12-11T05:48:33;31.60;;;20.70;;
13327;SDS011;6733;51.044;3.746;2022-12-11T05:51:00;29.47;;;20.67;;
13327;SDS011;6733;51.044;3.746;2022-12-11T05:53:27;34.57;;;22.77;;
13327;SDS011;6733;51.044;3.746;2022-12-11T05:55:54;30.73;;;21.90;;
13327;SDS011;6733;51.044;3.746;2022-12-11T05:58:25;32.63;;;22.33;;
13327;SDS011;6733;51.044;3.746;2022-12-11T06:00:51;35.30;;;22.67;;
13327;SDS011;6733;51.044;3.746;2022-12-11T06:03:17;35.67;;;22.60;;
13327;SDS011;6733;51.044;3.746;2022-12-11T06:05:43;35.87;;;22.80;;
13327;SDS011;6733;51.044;3.746;2022-12-11T06:08:09;32.17;;;22.80;;
13327;SDS011;6733;51.044;3.746;2022-12-11T06:10:35;34.87;;;23.80;;
13327;SDS011;6733;51.044;3.746;2022-12-11T06:13:01;35.03;;;24.20;;
13327;SDS011;6733;51.044;3.746;2022-12-11T06:15:28;34.00;;;23.73;;
13327;SDS011;6733;51.044;3.746;2022-12-11T06:17:54;40.57;;;24.93;;
13327;SDS011;6733;51.044;3.746;2022-12-11T06:20:20;36.33;;;23.93;;
13327;SDS011;6733;51.044;3.746;2022-12-11T06:22:46;35.97;;;25.13;;
13327;SDS011;6733;51.044;3.746;2022-12-11T06:25:12;34.87;;;24.40;;
13327;SDS011;6733;51.044;3.746;2022-12-11T06:27:38;40.80;;;25.50;;
13327;SDS011;6733;51.044;3.746;2022-12-11T06:30:04;36.67;;;24.93;;
13327;SDS011;6733;51.044;3.746;2022-12-11T06:32:31;36.93;;;25.23;;
13327;SDS011;6733;51.044;3.746;2022-12-11T06:34:57;33.77;;;23.37;;
13327;SDS011;6733;51.044;3.746;2022-12-11T06:37:23;40.07;;;25.67;;
13327;SDS011;6733;51.044;3.746;2022-12-11T06:39:49;37.87;;;24.83;;
13327;SDS011;6733;51.044;3.746;2022-12-11T06:42:15;38.50;;;24.03;;
13327;SDS011;6733;51.044;3.746;2022-12-11T06:44:42;37.17;;;23.80;;
13327;SDS011;6733;51.044;3.746;2022-12-11T06:47:08;36.73;;;24.47;;
13327;SDS011;6733;51.044;3.746;2022-12-11T06:49:34;38.27;;;24.80;;
13327;SDS011;6733;51.044;3.746;2022-12-11T06:52:00;40.13;;;24.83;;
13327;SDS011;6733;51.044;3.746;2022-12-11T06:54:26;38.33;;;24.60;;
13327;SDS011;6733;51.044;3.746;2022-12-11T06:56:52;39.47;;;25.13;;
13327;SDS011;6733;51.044;3.746;2022-12-11T06:59:18;40.13;;;26.70;;
13327;SDS011;6733;51.044;3.746;2022-12-11T07:01:45;37.33;;;24.17;;
13327;SDS011;6733;51.044;3.746;2022-12-11T07:04:11;39.90;;;26.13;;
13327;SDS011;6733;51.044;3.746;2022-12-11T07:06:37;39.47;;;24.67;;
13327;SDS011;6733;51.044;3.746;2022-12-11T07:09:03;38.70;;;25.97;;
13327;SDS011;6733;51.044;3.746;2022-12-11T07:11:30;38.93;;;24.73;;
13327;SDS011;6733;51.044;3.746;2022-12-11T07:13:57;38.50;;;25.27;;
13327;SDS011;6733;51.044;3.746;2022-12-11T07:16:27;42.23;;;24.70;;
13327;SDS011;6733;51.044;3.746;2022-12-11T07:18:53;38.20;;;24.40;;
13327;SDS011;6733;51.044;3.746;2022-12-11T07:21:20;39.23;;;25.53;;
13327;SDS011;6733;51.044;3.746;2022-12-11T07:23:46;38.27;;;23.83;;
13327;SDS011;6733;51.044;3.746;2022-12-11T07:26:15;36.50;;;24.77;;
13327;SDS011;6733;51.044;3.746;2022-12-11T07:28:42;36.67;;;23.90;;
13327;SDS011;6733;51.044;3.746;2022-12-11T07:31:10;40.63;;;26.20;;
13327;SDS011;6733;51.044;3.746;2022-12-11T07:33:37;36.53;;;24.17;;
13327;SDS011;6733;51.044;3.746;2022-12-11T07:36:04;36.90;;;24.40;;
13327;SDS011;6733;51.044;3.746;2022-12-11T07:38:32;38.30;;;24.63;;
13327;SDS011;6733;51.044;3.746;2022-12-11T07:41:05;39.73;;;24.87;;
13327;SDS011;6733;51.044;3.746;2022-12-11T07:43:33;38.07;;;24.13;;
13327;SDS011;6733;51.044;3.746;2022-12-11T07:46:00;35.07;;;24.40;;
13327;SDS011;6733;51.044;3.746;2022-12-11T07:48:27;30.57;;;21.40;;
13327;SDS011;6733;51.044;3.746;2022-12-11T07:50:53;36.20;;;24.33;;
13327;SDS011;6733;51.044;3.746;2022-12-11T07:53:19;38.10;;;24.23;;
13327;SDS011;6733;51.044;3.746;2022-12-11T07:55:46;35.87;;;23.37;;
13327;SDS011;6733;51.044;3.746;2022-12-11T07:58:12;37.60;;;24.30;;
13327;SDS011;6733;51.044;3.746;2022-12-11T08:00:38;40.67;;;25.93;;
13327;SDS011;6733;51.044;3.746;2022-12-11T08:03:04;39.63;;;24.03;;
13327;SDS011;6733;51.044;3.746;2022-12-11T08:05:30;40.63;;;24.60;;
13327;SDS011;6733;51.044;3.746;2022-12-11T08:07:56;40.13;;;23.73;;
13327;SDS011;6733;51.044;3.746;2022-12-11T08:10:22;37.10;;;24.50;;
13327;SDS011;6733;51.044;3.746;2022-12-11T08:12:48;39.80;;;26.97;;
13327;SDS011;6733;51.044;3.746;2022-12-11T08:15:14;42.53;;;26.97;;
13327;SDS011;6733;51.044;3.746;2022-12-11T08:17:40;42.37;;;25.90;;
13327;SDS011;6733;51.044;3.746;2022-12-11T08:20:07;42.67;;;25.93;;
13327;SDS011;6733;51.044;3.746;2022-12-11T08:22:33;43.37;;;26.37;;
13327;SDS011;6733;51.044;3.746;2022-12-11T08:24:59;45.13;;;25.37;;
13327;SDS011;6733;51.044;3.746;2022-12-11T08:27:25;44.03;;;25.23;;
13327;SDS011;6733;51.044;3.746;2022-12-11T08:29:51;40.77;;;24.87;;
13327;SDS011;6733;51.044;3.746;2022-12-11T08:34:43;42.57;;;25.27;;
13327;SDS011;6733;51.044;3.746;2022-12-11T08:37:10;45.23;;;25.03;;
13327;SDS011;6733;51.044;3.746;2022-12-11T08:39:36;39.57;;;24.10;;
13327;SDS011;6733;51.044;3.746;2022-12-11T08:42:02;40.17;;;23.57;;
13327;SDS011;6733;51.044;3.746;2022-12-11T08:44:29;39.07;;;23.07;;
13327;SDS011;6733;51.044;3.746;2022-12-11T08:46:55;43.23;;;25.63;;
13327;SDS011;6733;51.044;3.746;2022-12-11T08:49:21;42.73;;;24.57;;
13327;SDS011;6733;51.044;3.746;2022-12-11T08:51:48;52.30;;;31.80;;
13327;SDS011;6733;51.044;3.746;2022-12-11T08:54:14;44.73;;;26.10;;
13327;SDS011;6733;51.044;3.746;2022-12-11T08:56:40;44.20;;;25.10;;
13327;SDS011;6733;51.044;3.746;2022-12-11T08:59:06;42.70;;;24.93;;
13327;SDS011;6733;51.044;3.746;2022-12-11T09:01:32;38.77;;;23.70;;
13327;SDS011;6733;51.044;3.746;2022-12-11T09:03:58;39.03;;;24.00;;
13327;SDS011;6733;51.044;3.746;2022-12-11T09:06:25;43.63;;;25.50;;
13327;SDS011;6733;51.044;3.746;2022-12-11T09:08:53;40.80;;;24.77;;
13327;SDS011;6733;51.044;3.746;2022-12-11T09:11:21;43.27;;;25.50;;
13327;SDS011;6733;51.044;3.746;2022-12-11T09:13:49;43.93;;;24.60;;
13327;SDS011;6733;51.044;3.746;2022-12-11T09:16:17;44.83;;;24.53;;
13327;SDS011;6733;51.044;3.746;2022-12-11T09:18:45;41.23;;;23.97;;
13327;SDS011;6733;51.044;3.746;2022-12-11T09:21:14;43.37;;;24.37;;
13327;SDS011;6733;51.044;3.746;2022-12-11T09:23:42;43.00;;;25.13;;
13327;SDS011;6733;51.044;3.746;2022-12-11T09:26:10;46.00;;;24.33;;
13327;SDS011;6733;51.044;3.746;2022-12-11T09:28:38;44.87;;;24.20;;
13327;SDS011;6733;51.044;3.746;2022-12-11T09:31:12;44.37;;;25.30;;
13327;SDS011;6733;51.044;3.746;2022-12-11T09:33:38;47.43;;;24.87;;
13327;SDS011;6733;51.044;3.746;2022-12-11T09:36:05;43.47;;;25.70;;
13327;SDS011;6733;51.044;3.746;2022-12-11T09:38:32;42.40;;;26.23;;
13327;SDS011;6733;51.044;3.746;2022-12-11T09:40:58;49.17;;;27.47;;
13327;SDS011;6733;51.044;3.746;2022-12-11T09:46:09;43.63;;;25.60;;
13327;SDS011;6733;51.044;3.746;2022-12-11T09:48:38;45.37;;;26.20;;
13327;SDS011;6733;51.044;3.746;2022-12-11T09:51:15;42.97;;;25.53;;
13327;SDS011;6733;51.044;3.746;2022-12-11T09:53:46;39.67;;;23.77;;
13327;SDS011;6733;51.044;3.746;2022-12-11T09:56:21;42.30;;;24.17;;
13327;SDS011;6733;51.044;3.746;2022-12-11T09:58:58;43.93;;;24.93;;
13327;SDS011;6733;51.044;3.746;2022-12-11T10:01:33;41.27;;;24.90;;
13327;SDS011;6733;51.044;3.746;2022-12-11T10:04:17;40.33;;;23.60;;
13327;SDS011;6733;51.044;3.746;2022-12-11T10:17:43;36.20;;;22.30;;
13327;SDS011;6733;51.044;3.746;2022-12-11T10:20:16;37.83;;;23.93;;
13327;SDS011;6733;51.044;3.746;2022-12-11T10:22:53;38.20;;;23.23;;
13327;SDS011;6733;51.044;3.746;2022-12-11T10:25:23;31.00;;;20.23;;
13327;SDS011;6733;51.044;3.746;2022-12-11T10:27:53;38.20;;;21.43;;
13327;SDS011;6733;51.044;3.746;2022-12-11T10:30:21;35.90;;;22.17;;
13327;SDS011;6733;51.044;3.746;2022-12-11T10:35:50;33.77;;;21.53;;
13327;SDS011;6733;51.044;3.746;2022-12-11T10:38:37;30.10;;;19.07;;
13327;SDS011;6733;51.044;3.746;2022-12-11T10:41:12;26.87;;;18.30;;
13327;SDS011;6733;51.044;3.746;2022-12-11T10:43:43;26.27;;;18.33;;
13327;SDS011;6733;51.044;3.746;2022-12-11T10:48:51;27.93;;;18.43;;
13327;SDS011;6733;51.044;3.746;2022-12-11T10:51:24;28.30;;;18.77;;
13327;SDS011;6733;51.044;3.746;2022-12-11T10:54:45;26.03;;;17.07;;
13327;SDS011;6733;51.044;3.746;2022-12-11T10:56:49;28.77;;;17.23;;
13327;SDS011;6733;51.044;3.746;2022-12-11T10:59:29;29.00;;;18.83;;
13327;SDS011;6733;51.044;3.746;2022-12-11T11:02:04;30.53;;;18.40;;
13327;SDS011;6733;51.044;3.746;2022-12-11T11:04:40;28.83;;;18.97;;
13327;SDS011;6733;51.044;3.746;2022-12-11T11:07:18;30.67;;;18.50;;
13327;SDS011;6733;51.044;3.746;2022-12-11T11:09:48;28.43;;;20.97;;
13327;SDS011;6733;51.044;3.746;2022-12-11T11:14:57;29.00;;;18.87;;
13327;SDS011;6733;51.044;3.746;2022-12-11T11:17:24;28.70;;;18.20;;
13327;SDS011;6733;51.044;3.746;2022-12-11T11:19:50;25.97;;;18.57;;
13327;SDS011;6733;51.044;3.746;2022-12-11T11:22:17;25.90;;;17.27;;
13327;SDS011;6733;51.044;3.746;2022-12-11T11:24:54;23.77;;;16.53;;
13327;SDS011;6733;51.044;3.746;2022-12-11T11:30:19;25.10;;;17.13;;
13327;SDS011;6733;51.044;3.746;2022-12-11T11:32:50;26.50;;;17.97;;
13327;SDS011;6733;51.044;3.746;2022-12-11T11:35:20;30.80;;;19.20;;
13327;SDS011;6733;51.044;3.746;2022-12-11T11:38:32;29.33;;;19.80;;
13327;SDS011;6733;51.044;3.746;2022-12-11T11:46:05;28.73;;;18.67;;
13327;SDS011;6733;51.044;3.746;2022-12-11T11:51:26;33.13;;;19.50;;
13327;SDS011;6733;51.044;3.746;2022-12-11T11:53:59;29.63;;;21.33;;
13327;SDS011;6733;51.044;3.746;2022-12-11T11:56:30;29.43;;;21.13;;
13327;SDS011;6733;51.044;3.746;2022-12-11T12:01:44;34.40;;;19.33;;
13327;SDS011;6733;51.044;3.746;2022-12-11T12:04:10;31.50;;;19.97;;
13327;SDS011;6733;51.044;3.746;2022-12-11T12:06:42;28.00;;;17.57;;
13327;SDS011;6733;51.044;3.746;2022-12-11T12:09:36;31.27;;;20.70;;
13327;SDS011;6733;51.044;3.746;2022-12-11T12:23:41;27.53;;;17.53;;
13327;SDS011;6733;51.044;3.746;2022-12-11T12:34:25;31.57;;;18.90;;
13327;SDS011;6733;51.044;3.746;2022-12-11T12:40:13;30.20;;;18.43;;
13327;SDS011;6733;51.044;3.746;2022-12-11T12:45:30;31.93;;;19.87;;
13327;SDS011;6733;51.044;3.746;2022-12-11T12:51:26;32.67;;;20.53;;
13327;SDS011;6733;51.044;3.746;2022-12-11T12:53:54;31.87;;;21.17;;
13327;SDS011;6733;51.044;3.746;2022-12-11T12:56:26;37.37;;;22.97;;
13327;SDS011;6733;51.044;3.746;2022-12-11T12:58:54;36.43;;;21.37;;
13327;SDS011;6733;51.044;3.746;2022-12-11T13:01:21;35.37;;;22.63;;
13327;SDS011;6733;51.044;3.746;2022-12-11T13:06:29;35.37;;;21.87;;
13327;SDS011;6733;51.044;3.746;2022-12-11T13:09:09;35.37;;;22.37;;
13327;SDS011;6733;51.044;3.746;2022-12-11T13:11:40;33.57;;;22.00;;
13327;SDS011;6733;51.044;3.746;2022-12-11T13:16:39;38.00;;;21.97;;
13327;SDS011;6733;51.044;3.746;2022-12-11T13:19:25;34.63;;;20.70;;
13327;SDS011;6733;51.044;3.746;2022-12-11T13:24:29;34.90;;;21.50;;
13327;SDS011;6733;51.044;3.746;2022-12-11T13:27:42;32.97;;;21.50;;
13327;SDS011;6733;51.044;3.746;2022-12-11T13:29:48;33.90;;;21.43;;
13327;SDS011;6733;51.044;3.746;2022-12-11T13:34:42;31.90;;;20.40;;
13327;SDS011;6733;51.044;3.746;2022-12-11T13:37:37;36.27;;;20.33;;
13327;SDS011;6733;51.044;3.746;2022-12-11T13:40:14;35.83;;;22.20;;
13327;SDS011;6733;51.044;3.746;2022-12-11T13:42:54;38.40;;;22.73;;
13327;SDS011;6733;51.044;3.746;2022-12-11T13:45:26;36.67;;;22.47;;
13327;SDS011;6733;51.044;3.746;2022-12-11T13:47:58;37.00;;;21.53;;
13327;SDS011;6733;51.044;3.746;2022-12-11T13:50:28;41.20;;;23.53;;
13327;SDS011;6733;51.044;3.746;2022-12-11T13:52:57;35.50;;;22.77;;
13327;SDS011;6733;51.044;3.746;2022-12-11T13:55:26;35.90;;;22.13;;
13327;SDS011;6733;51.044;3.746;2022-12-11T13:57:57;35.97;;;22.23;;
13327;SDS011;6733;51.044;3.746;2022-12-11T14:00:25;42.03;;;23.93;;
13327;SDS011;6733;51.044;3.746;2022-12-11T14:02:55;39.90;;;24.70;;
13327;SDS011;6733;51.044;3.746;2022-12-11T14:05:23;37.17;;;24.27;;
13327;SDS011;6733;51.044;3.746;2022-12-11T14:07:50;38.93;;;24.17;;
13327;SDS011;6733;51.044;3.746;2022-12-11T14:10:23;37.40;;;24.40;;
13327;SDS011;6733;51.044;3.746;2022-12-11T14:12:59;36.23;;;20.60;;
13327;SDS011;6733;51.044;3.746;2022-12-11T14:15:29;29.17;;;19.90;;
13327;SDS011;6733;51.044;3.746;2022-12-11T14:17:57;30.47;;;18.43;;
13327;SDS011;6733;51.044;3.746;2022-12-11T14:20:25;27.20;;;18.13;;
13327;SDS011;6733;51.044;3.746;2022-12-11T14:25:55;32.07;;;19.87;;
13327;SDS011;6733;51.044;3.746;2022-12-11T14:28:21;30.73;;;19.27;;
13327;SDS011;6733;51.044;3.746;2022-12-11T14:30:58;28.03;;;18.23;;
13327;SDS011;6733;51.044;3.746;2022-12-11T14:33:27;27.57;;;18.93;;
13327;SDS011;6733;51.044;3.746;2022-12-11T14:35:59;31.33;;;19.87;;
13327;SDS011;6733;51.044;3.746;2022-12-11T14:38:32;38.97;;;23.97;;
13327;SDS011;6733;51.044;3.746;2022-12-11T14:41:30;37.57;;;22.23;;
13327;SDS011;6733;51.044;3.746;2022-12-11T14:44:16;34.40;;;21.73;;
13327;SDS011;6733;51.044;3.746;2022-12-11T14:46:47;31.73;;;20.93;;
13327;SDS011;6733;51.044;3.746;2022-12-11T14:49:26;30.47;;;20.70;;
13327;SDS011;6733;51.044;3.746;2022-12-11T14:51:59;32.63;;;20.80;;
13327;SDS011;6733;51.044;3.746;2022-12-11T14:54:34;31.23;;;20.60;;
13327;SDS011;6733;51.044;3.746;2022-12-11T14:57:04;31.50;;;19.90;;
13327;SDS011;6733;51.044;3.746;2022-12-11T14:59:34;32.10;;;20.73;;
13327;SDS011;6733;51.044;3.746;2022-12-11T15:02:30;30.03;;;20.63;;
13327;SDS011;6733;51.044;3.746;2022-12-11T15:07:27;32.43;;;21.23;;
13327;SDS011;6733;51.044;3.746;2022-12-11T15:09:53;32.60;;;20.87;;
13327;SDS011;6733;51.044;3.746;2022-12-11T15:12:20;31.40;;;20.80;;
13327;SDS011;6733;51.044;3.746;2022-12-11T15:14:50;34.93;;;21.23;;
13327;SDS011;6733;51.044;3.746;2022-12-11T15:17:22;34.27;;;21.27;;
13327;SDS011;6733;51.044;3.746;2022-12-11T15:19:50;36.23;;;21.00;;
13327;SDS011;6733;51.044;3.746;2022-12-11T15:22:19;34.43;;;22.73;;
13327;SDS011;6733;51.044;3.746;2022-12-11T15:24:51;35.90;;;21.37;;
13327;SDS011;6733;51.044;3.746;2022-12-11T15:27:22;32.60;;;21.00;;
13327;SDS011;6733;51.044;3.746;2022-12-11T15:29:52;33.13;;;20.20;;
13327;SDS011;6733;51.044;3.746;2022-12-11T15:32:19;35.63;;;20.80;;
13327;SDS011;6733;51.044;3.746;2022-12-11T15:34:54;31.83;;;20.00;;
13327;SDS011;6733;51.044;3.746;2022-12-11T15:37:24;36.30;;;21.70;;
13327;SDS011;6733;51.044;3.746;2022-12-11T15:39:53;33.33;;;22.00;;
13327;SDS011;6733;51.044;3.746;2022-12-11T15:42:25;36.27;;;23.37;;
13327;SDS011;6733;51.044;3.746;2022-12-11T15:44:56;39.23;;;23.40;;
13327;SDS011;6733;51.044;3.746;2022-12-11T15:47:24;30.53;;;19.40;;
13327;SDS011;6733;51.044;3.746;2022-12-11T15:49:52;32.90;;;21.30;;
13327;SDS011;6733;51.044;3.746;2022-12-11T15:52:21;31.40;;;19.80;;
13327;SDS011;6733;51.044;3.746;2022-12-11T15:54:47;28.17;;;18.73;;
13327;SDS011;6733;51.044;3.746;2022-12-11T15:57:15;29.43;;;19.70;;
13327;SDS011;6733;51.044;3.746;2022-12-11T15:59:43;29.17;;;19.40;;
13327;SDS011;6733;51.044;3.746;2022-12-11T16:02:13;27.27;;;18.50;;
13327;SDS011;6733;51.044;3.746;2022-12-11T16:04:40;32.10;;;19.13;;
13327;SDS011;6733;51.044;3.746;2022-12-11T16:07:14;29.87;;;17.70;;
13327;SDS011;6733;51.044;3.746;2022-12-11T16:09:43;27.57;;;17.13;;
13327;SDS011;6733;51.044;3.746;2022-12-11T16:12:10;27.47;;;18.23;;
13327;SDS011;6733;51.044;3.746;2022-12-11T16:14:37;25.97;;;17.73;;
13327;SDS011;6733;51.044;3.746;2022-12-11T16:17:08;26.07;;;16.33;;
13327;SDS011;6733;51.044;3.746;2022-12-11T16:19:35;25.97;;;17.07;;
13327;SDS011;6733;51.044;3.746;2022-12-11T16:22:02;22.03;;;15.20;;
13327;SDS011;6733;51.044;3.746;2022-12-11T16:24:28;20.83;;;15.13;;